Tonos — V7EF2 — position and weather

sailwx.info

Track history (hours):
 
Tides and Currents Weather Stations Pressure Air Temp Water Temp Dewpoint Dewpoint Depression Visibility Wind Speed Wind Dir Waves Ship Positions

Tonos

Last reported at 2017-May-05 11:38 UTC. Time now 2017-May-26 14:49 UTC.
Position N 01°54' E 102°21'.
Warning: this ship's position is 21 days out of date.

Length 276 m; draft 8.5 m.

Type: Tanker. MMSI: 538006541.

Date/timePositionNaut miles runAvg speedWind from/ knotsBaromVisibWave heightAir tempDewpointWater temp
2017-May-05 11:38N 01°54' E 102°21'212.3
2017-May-05 11:30N 01°54' E 102°23'612.5
2017-May-05 10:59N 01°51' E 102°29'712.1
2017-May-05 10:23N 01°48' E 102°35'512.0
2017-May-05 09:59N 01°46' E 102°40'611.9
2017-May-05 09:29N 01°44' E 102°45'4512.8
2017-May-05 05:58N 01°18' E 103°22'613.3
2017-May-05 05:30N 01°14' E 103°27'713.0
2017-May-05 05:00N 01°12' E 103°33'612.2
2017-May-05 04:30N 01°11' E 103°39'611.6
2017-May-05 04:00N 01°09' E 103°44'510.3
2017-May-05 03:30N 01°11' E 103°49'510.6
2017-May-05 03:00N 01°13' E 103°53'2 2.5
2017-May-05 02:12N 01°15' E 103°55'0 0.0
2017-May-05 01:54N 01°15' E 103°55'0 0.1
2017-May-05 01:27N 01°15' E 103°55'0 0.0
2017-May-05 00:57N 01°15' E 103°55'0 0.1
2017-May-05 00:27N 01°15' E 103°55'0 0.2
2017-May-04 23:48N 01°15' E 103°55'0 0.1
2017-May-04 23:30N 01°15' E 103°55'0 0.1
2017-May-04 22:54N 01°15' E 103°54'0 0.1
2017-May-04 22:30N 01°15' E 103°54'0 0.0
2017-May-04 21:30N 01°15' E 103°54'0 0.0
2017-May-04 20:51N 01°15' E 103°54'0 0.1
2017-May-04 20:24N 01°15' E 103°54'0 0.1
2017-May-04 19:51N 01°15' E 103°55'0 0.0
2017-May-04 19:00N 01°15' E 103°55'0 0.0
2017-May-04 18:30N 01°15' E 103°55'0 0.0
2017-May-04 18:00N 01°15' E 103°55'0 0.0
2017-May-04 17:24N 01°15' E 103°55'0 0.0
2017-May-04 17:00N 01°15' E 103°55'0 0.0
2017-May-04 16:06N 01°15' E 103°55'0 0.1
2017-May-04 15:27N 01°15' E 103°54'0 0.0
2017-May-04 14:54N 01°15' E 103°54'0 0.1
2017-May-04 14:00N 01°15' E 103°55'0 0.0
2017-May-04 13:03N 01°15' E 103°55'0 0.0
2017-May-04 12:57N 01°15' E 103°55'0 0.0
2017-May-04 12:15N 01°15' E 103°55'0 0.2
2017-May-04 12:00N 01°15' E 103°54'0 0.1
2017-May-04 11:15N 01°15' E 103°55'0 0.0
2017-May-04 10:57N 01°15' E 103°55'0 0.1
2017-May-04 10:24N 01°15' E 103°55'0 0.2
2017-May-04 10:00N 01°15' E 103°54'0 0.2
2017-May-04 09:30N 01°15' E 103°55'0 0.1
2017-May-04 08:36N 01°15' E 103°55'0 0.3
2017-May-04 08:24N 01°15' E 103°55'0 0.1
2017-May-04 08:01N 01°15' E 103°55'1 2.0
2017-May-04 07:31N 01°15' E 103°56'3 6.6
2017-May-04 07:00N 01°16' E 103°59'1 1.2
2017-May-04 06:30N 01°16' E 103°59'1 1.7
2017-May-04 06:00N 01°16' E 104°00'  
Track history (hours):
 
Tides and Currents Weather Stations Pressure Air Temp Water Temp Dewpoint Dewpoint Depression Visibility Wind Speed Wind Dir Waves Ship Positions

Tonos

Last reported at 2017-May-05 11:38 UTC. Time now 2017-May-26 14:49 UTC.
Position N 01°54' E 102°21'.
Warning: this ship's position is 21 days out of date.

Length 276 m; draft 8.5 m.

Type: Tanker. MMSI: 538006541.

Date/timePositionNaut miles runAvg speedWind from/ knotsBaromVisibWave heightAir tempDewpointWater temp
2017-May-05 11:38N 01°54' E 102°21'212.3
2017-May-05 11:30N 01°54' E 102°23'612.5
2017-May-05 10:59N 01°51' E 102°29'712.1
2017-May-05 10:23N 01°48' E 102°35'512.0
2017-May-05 09:59N 01°46' E 102°40'611.9
2017-May-05 09:29N 01°44' E 102°45'4512.8
2017-May-05 05:58N 01°18' E 103°22'613.3
2017-May-05 05:30N 01°14' E 103°27'713.0
2017-May-05 05:00N 01°12' E 103°33'612.2
2017-May-05 04:30N 01°11' E 103°39'611.6
2017-May-05 04:00N 01°09' E 103°44'510.3
2017-May-05 03:30N 01°11' E 103°49'510.6
2017-May-05 03:00N 01°13' E 103°53'2 2.5
2017-May-05 02:12N 01°15' E 103°55'0 0.0
2017-May-05 01:54N 01°15' E 103°55'0 0.1
2017-May-05 01:27N 01°15' E 103°55'0 0.0
2017-May-05 00:57N 01°15' E 103°55'0 0.1
2017-May-05 00:27N 01°15' E 103°55'0 0.2
2017-May-04 23:48N 01°15' E 103°55'0 0.1
2017-May-04 23:30N 01°15' E 103°55'0 0.1
2017-May-04 22:54N 01°15' E 103°54'0 0.1
2017-May-04 22:30N 01°15' E 103°54'0 0.0
2017-May-04 21:30N 01°15' E 103°54'0 0.0
2017-May-04 20:51N 01°15' E 103°54'0 0.1
2017-May-04 20:24N 01°15' E 103°54'0 0.1
2017-May-04 19:51N 01°15' E 103°55'0 0.0
2017-May-04 19:00N 01°15' E 103°55'0 0.0
2017-May-04 18:30N 01°15' E 103°55'0 0.0
2017-May-04 18:00N 01°15' E 103°55'0 0.0
2017-May-04 17:24N 01°15' E 103°55'0 0.0
2017-May-04 17:00N 01°15' E 103°55'0 0.0
2017-May-04 16:06N 01°15' E 103°55'0 0.1
2017-May-04 15:27N 01°15' E 103°54'0 0.0
2017-May-04 14:54N 01°15' E 103°54'0 0.1
2017-May-04 14:00N 01°15' E 103°55'0 0.0
2017-May-04 13:03N 01°15' E 103°55'0 0.0
2017-May-04 12:57N 01°15' E 103°55'0 0.0
2017-May-04 12:15N 01°15' E 103°55'0 0.2
2017-May-04 12:00N 01°15' E 103°54'0 0.1
2017-May-04 11:15N 01°15' E 103°55'0 0.0
2017-May-04 10:57N 01°15' E 103°55'0 0.1
2017-May-04 10:24N 01°15' E 103°55'0 0.2
2017-May-04 10:00N 01°15' E 103°54'0 0.2
2017-May-04 09:30N 01°15' E 103°55'0 0.1
2017-May-04 08:36N 01°15' E 103°55'0 0.3
2017-May-04 08:24N 01°15' E 103°55'0 0.1
2017-May-04 08:01N 01°15' E 103°55'1 2.0
2017-May-04 07:31N 01°15' E 103°56'3 6.6
2017-May-04 07:00N 01°16' E 103°59'1 1.2
2017-May-04 06:30N 01°16' E 103°59'1 1.7
2017-May-04 06:00N 01°16' E 104°00'  

Dump ship's entire track history